createdAt,value
2024-01-26T00:02:47.234Z,22.58
2024-01-26T00:05:14.352Z,23.38
2024-01-26T00:07:42.158Z,27.15
2024-01-26T00:10:09.478Z,25.92
2024-01-26T00:12:37.295Z,21.27
2024-01-26T00:15:04.612Z,24.73
2024-01-26T00:17:31.657Z,26.38
2024-01-26T00:19:58.704Z,26.30
2024-01-26T00:22:25.678Z,24.25
2024-01-26T00:24:52.667Z,26.23
2024-01-26T00:27:19.686Z,25.00
2024-01-26T00:29:46.876Z,25.27
2024-01-26T00:32:13.803Z,26.40
2024-01-26T00:34:41.264Z,22.17
2024-01-26T00:37:08.671Z,25.42
2024-01-26T00:39:35.798Z,28.48
2024-01-26T00:42:02.866Z,23.60
2024-01-26T00:44:29.907Z,22.40
2024-01-26T00:46:56.912Z,22.58
2024-01-26T00:49:30.589Z,20.35
2024-01-26T00:52:01.658Z,22.85
2024-01-26T00:54:28.693Z,20.52
2024-01-26T00:56:55.709Z,19.05
2024-01-26T00:59:22.674Z,19.70
2024-01-26T01:01:49.825Z,18.67
2024-01-26T01:04:16.785Z,19.58
2024-01-26T01:06:43.710Z,18.27
2024-01-26T01:09:11.067Z,15.00
2024-01-26T01:11:38.081Z,15.75
2024-01-26T01:14:05.214Z,17.15
2024-01-26T01:16:33.384Z,17.48
2024-01-26T01:19:00.606Z,16.85
2024-01-26T01:21:27.612Z,16.63
2024-01-26T01:23:54.568Z,14.63
2024-01-26T01:26:21.480Z,13.00
2024-01-26T01:28:48.405Z,13.63
2024-01-26T01:31:15.378Z,12.75
2024-01-26T01:33:42.497Z,12.55
2024-01-26T01:36:09.536Z,10.98
2024-01-26T01:38:36.523Z,10.45
2024-01-26T01:41:03.956Z,8.75
2024-01-26T01:43:31.268Z,8.93
2024-01-26T01:45:58.216Z,8.80
2024-01-26T01:48:25.771Z,8.48
2024-01-26T01:50:53.033Z,7.45
2024-01-26T01:53:21.375Z,8.88
2024-01-26T01:55:49.568Z,11.40
2024-01-26T01:58:17.500Z,7.95
2024-01-26T02:00:44.592Z,10.93
2024-01-26T02:03:11.675Z,9.43
2024-01-26T02:05:41.798Z,8.55
2024-01-26T02:10:35.957Z,9.52
2024-01-26T02:13:02.974Z,9.35
2024-01-26T02:15:29.914Z,9.98
2024-01-26T02:17:56.983Z,11.77
2024-01-26T02:20:35.297Z,10.73
2024-01-26T02:23:10.337Z,10.05
2024-01-26T02:25:37.390Z,13.60
2024-01-26T02:28:04.991Z,12.45
2024-01-26T02:30:34.782Z,11.98
2024-01-26T02:33:01.876Z,12.45
2024-01-26T02:35:29.008Z,11.45
2024-01-26T02:37:56.057Z,13.07
2024-01-26T02:40:23.044Z,12.32
2024-01-26T02:42:50.088Z,12.90
2024-01-26T02:45:17.040Z,13.00
2024-01-26T02:47:44.188Z,12.77
2024-01-26T02:50:11.492Z,14.45
2024-01-26T02:52:38.475Z,12.88
2024-01-26T02:55:05.813Z,12.45
2024-01-26T02:57:32.756Z,13.77
2024-01-26T02:59:59.786Z,13.30
2024-01-26T03:02:26.859Z,13.93
2024-01-26T03:04:53.774Z,14.07
2024-01-26T03:07:20.754Z,10.93
2024-01-26T03:09:47.874Z,13.77
2024-01-26T03:12:14.951Z,12.60
2024-01-26T03:14:41.980Z,14.23
2024-01-26T03:17:08.883Z,12.35
2024-01-26T03:19:37.415Z,10.90
2024-01-26T03:22:04.741Z,11.45
2024-01-26T03:24:31.737Z,11.68
2024-01-26T03:26:59.855Z,12.38
2024-01-26T03:29:26.837Z,12.45
2024-01-26T03:31:53.843Z,10.05
2024-01-26T03:34:21.291Z,11.38
2024-01-26T03:36:48.548Z,11.60
2024-01-26T03:39:15.670Z,10.02
2024-01-26T03:41:42.905Z,10.98
2024-01-26T03:44:11.816Z,10.75
2024-01-26T03:46:45.059Z,12.43
2024-01-26T03:49:12.169Z,17.02
2024-01-26T03:51:39.593Z,21.30
2024-01-26T03:54:07.277Z,9.55
2024-01-26T03:56:34.419Z,11.88
2024-01-26T03:59:01.431Z,8.00
2024-01-26T04:01:28.399Z,8.55
2024-01-26T04:03:58.437Z,7.38
2024-01-26T04:06:28.132Z,7.82
2024-01-26T04:08:59.763Z,6.90
2024-01-26T04:11:26.912Z,7.22
2024-01-26T04:13:53.833Z,7.72
2024-01-26T04:16:20.758Z,8.55
2024-01-26T04:18:48.517Z,7.93
2024-01-26T04:21:20.229Z,8.70
2024-01-26T04:23:47.697Z,6.30
2024-01-26T04:26:16.150Z,7.05
2024-01-26T04:28:43.158Z,6.43
2024-01-26T04:31:10.717Z,6.85
2024-01-26T04:33:38.055Z,4.93
2024-01-26T04:36:09.454Z,7.90
2024-01-26T04:38:39.835Z,4.20
2024-01-26T04:41:06.937Z,4.55
2024-01-26T04:43:33.941Z,6.65
2024-01-26T04:46:04.129Z,5.32
2024-01-26T04:50:58.209Z,4.43
2024-01-26T04:53:25.220Z,6.90
2024-01-26T04:55:52.137Z,3.40
2024-01-26T04:58:19.074Z,5.53
2024-01-26T05:00:49.017Z,3.92
2024-01-26T05:03:16.072Z,5.65
2024-01-26T05:05:43.207Z,5.63
2024-01-26T05:08:10.204Z,2.97
2024-01-26T05:10:37.175Z,3.58
2024-01-26T05:13:04.442Z,5.10
2024-01-26T05:15:32.693Z,3.75
2024-01-26T05:17:59.678Z,4.65
2024-01-26T05:20:26.719Z,6.22
2024-01-26T05:22:53.678Z,2.75
2024-01-26T05:25:20.788Z,3.40
2024-01-26T05:27:47.884Z,3.83
2024-01-26T05:30:15.030Z,3.15
2024-01-26T05:32:42.324Z,3.13
2024-01-26T05:35:10.296Z,5.00
2024-01-26T05:37:37.414Z,4.53
2024-01-26T05:40:08.630Z,5.22
2024-01-26T05:42:38.831Z,5.22
2024-01-26T05:47:33.642Z,5.60
2024-01-26T05:50:00.807Z,5.68
2024-01-26T05:52:27.822Z,3.60
2024-01-26T05:54:58.283Z,3.25
2024-01-26T05:59:52.199Z,4.63
2024-01-26T06:02:22.002Z,6.60
2024-01-26T06:04:49.024Z,3.78
2024-01-26T06:07:16.020Z,3.88
2024-01-26T06:09:42.976Z,5.20
2024-01-26T06:12:10.098Z,5.68
2024-01-26T06:14:37.218Z,4.30
2024-01-26T06:17:04.347Z,3.45
2024-01-26T06:19:31.557Z,7.00
2024-01-26T06:21:58.872Z,5.07
2024-01-26T06:24:25.980Z,5.47
2024-01-26T06:26:52.950Z,4.88
2024-01-26T06:29:23.958Z,4.95
2024-01-26T06:31:53.633Z,4.90
2024-01-26T06:34:20.819Z,5.63
2024-01-26T06:36:47.972Z,4.88
2024-01-26T06:39:14.974Z,3.75
2024-01-26T06:41:43.220Z,4.32
2024-01-26T06:44:15.478Z,5.65
2024-01-26T06:46:42.556Z,5.20
2024-01-26T06:49:10.800Z,4.30
2024-01-26T06:51:40.604Z,5.95
2024-01-26T06:54:07.605Z,4.82
2024-01-26T06:56:34.640Z,7.43
2024-01-26T06:59:01.634Z,6.75
2024-01-26T07:01:31.687Z,8.63
2024-01-26T07:03:58.804Z,4.75
2024-01-26T07:06:26.019Z,7.00
2024-01-26T07:08:53.174Z,5.00
2024-01-26T07:11:25.261Z,13.55
2024-01-26T07:13:52.181Z,6.22
2024-01-26T07:16:19.186Z,4.90
2024-01-26T07:18:46.524Z,4.30
2024-01-26T07:21:19.448Z,5.15
2024-01-26T07:23:46.489Z,5.93
2024-01-26T07:26:22.353Z,6.60
2024-01-26T07:28:49.732Z,4.45
2024-01-26T07:31:17.036Z,7.80
2024-01-26T07:33:47.925Z,6.35
2024-01-26T07:36:15.080Z,5.30
2024-01-26T07:38:42.304Z,8.27
2024-01-26T07:41:09.748Z,5.10
2024-01-26T07:43:36.762Z,6.55
2024-01-26T07:46:03.957Z,5.53
2024-01-26T07:48:31.632Z,6.63
2024-01-26T07:50:58.843Z,4.65
2024-01-26T07:53:25.951Z,6.50
2024-01-26T07:55:52.945Z,4.30
2024-01-26T07:58:19.980Z,4.20
2024-01-26T08:00:49.040Z,4.38
2024-01-26T08:03:16.692Z,4.32
2024-01-26T08:05:43.968Z,7.43
2024-01-26T08:08:11.029Z,4.70
2024-01-26T08:10:38.257Z,5.35
2024-01-26T08:13:05.616Z,5.75
2024-01-26T08:15:32.655Z,6.15
2024-01-26T08:18:00.123Z,5.32
2024-01-26T08:20:27.244Z,6.03
2024-01-26T08:22:54.460Z,3.70
2024-01-26T08:25:21.621Z,5.00
2024-01-26T08:27:48.956Z,5.13
2024-01-26T08:30:17.194Z,5.07
2024-01-26T08:32:44.882Z,5.20
2024-01-26T08:35:15.400Z,4.20
2024-01-26T08:37:42.619Z,4.90
2024-01-26T08:40:10.679Z,4.65
2024-01-26T08:42:37.986Z,3.40
2024-01-26T08:45:05.704Z,5.07
2024-01-26T08:47:32.850Z,4.07
2024-01-26T08:50:00.083Z,3.95
2024-01-26T08:52:27.179Z,3.72
2024-01-26T08:54:54.531Z,8.57
2024-01-26T08:57:21.692Z,3.35
2024-01-26T08:59:48.779Z,3.80
2024-01-26T09:02:15.902Z,3.30
2024-01-26T09:04:43.599Z,3.38
2024-01-26T09:07:11.255Z,4.00
2024-01-26T09:09:40.281Z,3.50
2024-01-26T09:12:07.567Z,4.25
2024-01-26T09:14:34.982Z,7.35
2024-01-26T09:17:02.296Z,4.13
2024-01-26T09:19:29.573Z,4.82
2024-01-26T09:21:57.248Z,5.03
2024-01-26T09:24:24.488Z,4.57
2024-01-26T09:26:54.031Z,7.85
2024-01-26T09:29:21.278Z,5.95
2024-01-26T09:31:48.480Z,10.35
2024-01-26T09:34:15.791Z,9.73
2024-01-26T09:36:43.067Z,16.55
2024-01-26T09:39:10.716Z,8.70
2024-01-26T09:41:38.004Z,10.10
2024-01-26T09:44:07.738Z,5.35
2024-01-26T09:46:36.197Z,5.63
2024-01-26T09:49:08.023Z,5.43
2024-01-26T09:51:35.311Z,4.53
2024-01-26T09:54:09.080Z,4.78
2024-01-26T09:56:39.862Z,5.65
2024-01-26T09:59:09.439Z,3.55
2024-01-26T10:01:36.993Z,5.32
2024-01-26T10:04:04.720Z,5.13
2024-01-26T10:06:32.532Z,4.70
2024-01-26T10:08:59.941Z,3.92
2024-01-26T10:11:27.168Z,4.78
2024-01-26T10:13:54.190Z,8.15
2024-01-26T10:16:21.804Z,6.55
2024-01-26T10:18:49.962Z,4.20
2024-01-26T10:21:18.335Z,5.30
2024-01-26T10:23:48.047Z,6.82
2024-01-26T10:26:15.629Z,4.47
2024-01-26T10:28:44.499Z,6.05
2024-01-26T10:31:12.124Z,5.72
2024-01-26T10:33:46.212Z,6.63
2024-01-26T10:36:15.496Z,6.18
2024-01-26T10:38:49.246Z,6.10
2024-01-26T10:41:21.857Z,3.60
2024-01-26T10:43:53.995Z,6.57
2024-01-26T10:46:21.285Z,4.97
2024-01-26T10:48:50.854Z,4.20
2024-01-26T10:51:19.971Z,4.40
2024-01-26T10:53:47.978Z,6.65
2024-01-26T10:56:15.758Z,3.85
2024-01-26T10:58:42.851Z,5.55
2024-01-26T11:01:11.862Z,8.65
2024-01-26T11:03:39.258Z,3.35
2024-01-26T11:06:09.631Z,5.10
2024-01-26T11:08:37.446Z,5.65
2024-01-26T11:11:04.923Z,5.57
2024-01-26T11:13:38.844Z,9.75
2024-01-26T11:16:07.429Z,4.55
2024-01-26T11:18:38.767Z,6.55
2024-01-26T11:21:06.281Z,4.30
2024-01-26T11:23:42.332Z,9.27
2024-01-26T11:26:16.908Z,9.02
2024-01-26T11:28:46.415Z,5.43
2024-01-26T11:31:13.642Z,4.30
2024-01-26T11:33:42.198Z,3.90
2024-01-26T11:36:13.850Z,4.35
2024-01-26T11:38:43.787Z,4.63
2024-01-26T11:41:12.294Z,4.45
2024-01-26T11:43:46.368Z,3.65
2024-01-26T11:46:14.678Z,4.95
2024-01-26T11:48:42.868Z,4.85
2024-01-26T11:51:10.313Z,6.63
2024-01-26T11:53:37.695Z,4.22
2024-01-26T11:56:05.943Z,4.97
2024-01-26T11:58:33.666Z,3.30
2024-01-26T12:01:03.343Z,3.40
2024-01-26T12:03:30.861Z,3.08
2024-01-26T12:05:58.567Z,4.55
2024-01-26T12:08:26.313Z,6.60
2024-01-26T12:10:55.949Z,3.92
2024-01-26T12:13:25.892Z,4.22
2024-01-26T12:15:53.015Z,4.20
2024-01-26T12:18:20.245Z,4.60
2024-01-26T12:20:51.951Z,4.18
2024-01-26T12:23:21.201Z,6.07
2024-01-26T12:25:53.521Z,4.53
2024-01-26T12:28:22.481Z,3.53
2024-01-26T12:30:50.570Z,4.65
2024-01-26T12:33:18.203Z,4.53
2024-01-26T12:35:49.085Z,4.40
2024-01-26T12:38:17.266Z,4.00
2024-01-26T12:40:44.670Z,6.75
2024-01-26T12:43:13.421Z,4.63
2024-01-26T12:45:40.761Z,5.68
2024-01-26T12:48:09.367Z,4.15
2024-01-26T12:50:36.646Z,4.18
2024-01-26T12:53:04.601Z,3.58
2024-01-26T12:55:31.678Z,5.57
2024-01-26T12:57:58.720Z,4.55
2024-01-26T13:00:27.092Z,4.03
2024-01-26T13:02:55.324Z,8.45
2024-01-26T13:05:23.059Z,4.72
2024-01-26T13:07:50.766Z,4.57
2024-01-26T13:10:18.117Z,6.57
2024-01-26T13:12:45.494Z,7.45
2024-01-26T13:15:14.142Z,4.70
2024-01-26T13:17:41.644Z,4.55
2024-01-26T13:20:19.413Z,6.68
2024-01-26T13:22:49.221Z,6.10
2024-01-26T13:25:16.935Z,4.57
2024-01-26T13:27:44.959Z,4.57
2024-01-26T13:30:13.513Z,5.70
2024-01-26T13:32:47.396Z,5.05
2024-01-26T13:35:16.332Z,5.25
2024-01-26T13:37:43.545Z,4.25
2024-01-26T13:40:11.397Z,4.45
2024-01-26T13:42:39.023Z,4.57
2024-01-26T13:45:09.899Z,5.90
2024-01-26T13:47:37.200Z,5.68
2024-01-26T13:50:04.902Z,5.55
2024-01-26T13:52:32.185Z,4.32
2024-01-26T13:54:59.318Z,5.15
2024-01-26T13:57:26.677Z,4.70
2024-01-26T13:59:53.974Z,5.60
2024-01-26T14:02:41.179Z,5.25
2024-01-26T14:05:09.128Z,5.47
2024-01-26T14:07:36.380Z,9.90
2024-01-26T14:10:03.995Z,5.03
2024-01-26T14:12:31.117Z,6.97
2024-01-26T14:15:01.309Z,7.40
2024-01-26T14:17:28.676Z,6.10
2024-01-26T14:19:56.050Z,5.57
2024-01-26T14:22:23.293Z,4.72
2024-01-26T14:24:50.333Z,7.40
2024-01-26T14:27:20.376Z,4.60
2024-01-26T14:29:47.647Z,4.80
2024-01-26T14:32:14.863Z,3.78
2024-01-26T14:34:42.079Z,5.25
2024-01-26T14:37:10.296Z,3.70
2024-01-26T14:39:39.790Z,3.85
2024-01-26T14:42:08.008Z,3.10
2024-01-26T14:44:36.693Z,3.75
2024-01-26T14:47:04.682Z,4.07
2024-01-26T14:49:33.218Z,3.90
2024-01-26T14:52:01.892Z,3.65
2024-01-26T14:54:29.234Z,3.80
2024-01-26T14:56:56.283Z,3.33
2024-01-26T14:59:23.417Z,3.50
2024-01-26T15:01:50.608Z,4.13
2024-01-26T15:04:18.952Z,6.57
2024-01-26T15:06:46.391Z,2.95
2024-01-26T15:09:13.625Z,3.47
2024-01-26T15:11:41.676Z,4.07
2024-01-26T15:14:08.954Z,3.97
2024-01-26T15:16:36.380Z,4.30
2024-01-26T15:19:04.870Z,6.65
2024-01-26T15:21:32.320Z,10.50
2024-01-26T15:23:59.524Z,6.35
2024-01-26T15:26:26.697Z,4.00
2024-01-26T15:28:54.130Z,3.60
2024-01-26T15:31:24.345Z,5.03
2024-01-26T15:36:30.182Z,5.60
2024-01-26T15:38:57.875Z,8.80
2024-01-26T15:41:26.077Z,9.07
2024-01-26T15:43:53.490Z,3.33
2024-01-26T15:46:20.542Z,2.25
2024-01-26T15:48:47.795Z,5.07
2024-01-26T15:51:15.295Z,3.63
2024-01-26T15:53:43.173Z,4.60
2024-01-26T15:56:12.430Z,6.40
2024-01-26T15:58:39.500Z,4.60
2024-01-26T16:01:06.831Z,2.50
2024-01-26T16:03:34.074Z,6.82
2024-01-26T16:06:01.416Z,5.03
2024-01-26T16:08:28.491Z,6.85
2024-01-26T16:10:57.372Z,5.50
2024-01-26T16:13:24.410Z,3.30
2024-01-26T16:15:54.261Z,3.55
2024-01-26T16:18:22.111Z,5.25
2024-01-26T16:20:49.897Z,4.95
2024-01-26T16:23:19.991Z,5.45
2024-01-26T16:25:47.017Z,6.90
2024-01-26T16:28:14.180Z,5.15
2024-01-26T16:30:41.193Z,3.30
2024-01-26T16:33:08.364Z,4.90
2024-01-26T16:35:35.410Z,3.05
2024-01-26T16:38:02.548Z,4.45
2024-01-26T16:40:33.024Z,6.50
2024-01-26T16:43:02.853Z,5.05
2024-01-26T16:45:30.106Z,6.18
2024-01-26T16:47:57.290Z,7.43
2024-01-26T16:50:27.447Z,6.82
2024-01-26T16:52:54.496Z,6.43
2024-01-26T16:55:21.927Z,8.95
2024-01-26T16:57:49.024Z,10.48
2024-01-26T17:00:19.523Z,10.02
2024-01-26T17:02:46.666Z,6.50
2024-01-26T17:05:14.240Z,7.72
2024-01-26T17:07:41.281Z,13.98
2024-01-26T17:10:11.416Z,20.40
2024-01-26T17:15:06.462Z,7.85
2024-01-26T17:17:36.613Z,6.88
2024-01-26T17:22:36.909Z,4.55
2024-01-26T17:25:08.938Z,6.55
2024-01-26T17:27:44.270Z,5.03
2024-01-26T17:30:12.195Z,4.45
2024-01-26T17:32:40.795Z,6.15
2024-01-26T17:35:08.293Z,6.10
2024-01-26T17:37:35.763Z,4.65
2024-01-26T17:40:04.226Z,6.30
2024-01-26T17:42:32.353Z,6.15
2024-01-26T17:44:59.862Z,9.93
2024-01-26T17:47:27.188Z,10.68
2024-01-26T17:49:54.456Z,8.23
2024-01-26T17:52:21.646Z,7.35
2024-01-26T17:54:51.437Z,9.07
2024-01-26T17:57:18.652Z,4.68
2024-01-26T17:59:49.020Z,5.88
2024-01-26T18:02:16.186Z,5.65
2024-01-26T18:04:43.747Z,6.95
2024-01-26T18:07:11.020Z,5.85
2024-01-26T18:09:38.112Z,32.35
2024-01-26T18:12:05.556Z,8.93
2024-01-26T18:14:40.208Z,9.43
2024-01-26T18:17:07.858Z,11.70
2024-01-26T18:19:37.823Z,6.90
2024-01-26T18:22:05.130Z,7.43
2024-01-26T18:24:32.239Z,13.77
2024-01-26T18:26:59.454Z,14.40
2024-01-26T18:29:27.404Z,8.07
2024-01-26T18:31:54.521Z,7.22
2024-01-26T18:34:21.789Z,7.40
2024-01-26T18:36:53.870Z,10.85
2024-01-26T18:39:21.988Z,22.67
2024-01-26T18:41:49.421Z,13.27
2024-01-26T18:44:16.478Z,9.57
2024-01-26T18:46:46.354Z,8.50
2024-01-26T18:49:13.523Z,4.45
2024-01-26T18:51:41.058Z,6.32
2024-01-26T18:54:08.695Z,4.25
2024-01-26T18:56:35.978Z,7.18
2024-01-26T18:59:08.428Z,6.03
2024-01-26T19:01:36.070Z,4.25
2024-01-26T19:04:03.594Z,5.65
2024-01-26T19:06:31.696Z,10.23
2024-01-26T19:08:58.902Z,6.05
2024-01-26T19:11:26.932Z,10.07
2024-01-26T19:13:54.094Z,13.77
2024-01-26T19:16:21.444Z,9.15
2024-01-26T19:18:51.550Z,8.38
2024-01-26T19:21:19.356Z,7.05
2024-01-26T19:23:46.683Z,21.02
2024-01-26T19:26:14.481Z,98.13
2024-01-26T19:28:41.614Z,57.53
2024-01-26T19:31:08.688Z,34.88
2024-01-26T19:33:35.922Z,12.23
2024-01-26T19:36:06.630Z,8.55
2024-01-26T19:38:36.761Z,7.18
2024-01-26T19:43:35.461Z,11.75
2024-01-26T19:46:05.725Z,8.63
2024-01-26T19:51:03.231Z,8.48
2024-01-26T19:56:02.893Z,6.32
2024-01-26T19:58:30.190Z,7.32
2024-01-26T20:00:57.206Z,5.70
2024-01-26T20:03:25.103Z,4.20
2024-01-26T20:05:52.754Z,7.53
2024-01-26T20:08:20.098Z,6.45
2024-01-26T20:10:47.280Z,8.95
2024-01-26T20:13:17.914Z,8.65
2024-01-26T20:15:48.111Z,12.98
2024-01-26T20:20:42.662Z,12.57
2024-01-26T20:23:09.944Z,12.32
2024-01-26T20:25:38.777Z,12.98
2024-01-26T20:30:34.269Z,18.08
2024-01-26T20:33:02.999Z,16.08
2024-01-26T20:35:30.543Z,18.48
2024-01-26T20:38:00.738Z,10.85
2024-01-26T20:43:03.612Z,8.15
2024-01-26T20:45:31.041Z,6.47
2024-01-26T20:47:58.391Z,8.38
2024-01-26T20:50:28.089Z,19.65
2024-01-26T20:52:55.192Z,35.13
2024-01-26T20:55:22.336Z,18.17
2024-01-26T20:57:53.693Z,14.75
2024-01-26T21:00:21.986Z,12.63
2024-01-26T21:02:49.568Z,11.10
2024-01-26T21:05:17.557Z,16.67
2024-01-26T21:07:59.984Z,17.55
2024-01-26T21:10:28.078Z,16.30
2024-01-26T21:12:58.466Z,15.57
2024-01-26T21:15:26.111Z,15.25
2024-01-26T21:17:54.028Z,21.55
2024-01-26T21:20:23.873Z,18.85
2024-01-26T21:22:52.201Z,19.08
2024-01-26T21:25:19.985Z,17.13
2024-01-26T21:27:47.261Z,11.43
2024-01-26T21:30:15.415Z,10.45
2024-01-26T21:32:42.831Z,6.63
2024-01-26T21:35:10.844Z,5.85
2024-01-26T21:37:38.386Z,6.50
2024-01-26T21:40:09.694Z,8.35
2024-01-26T21:42:39.843Z,11.45
2024-01-26T21:47:34.761Z,7.28
2024-01-26T21:50:02.247Z,7.20
2024-01-26T21:52:30.493Z,9.77
2024-01-26T21:54:57.937Z,6.97
2024-01-26T21:57:25.206Z,8.43
2024-01-26T21:59:53.464Z,6.13
2024-01-26T22:02:21.457Z,4.55
2024-01-26T22:04:48.548Z,5.88
2024-01-26T22:07:16.026Z,7.35
2024-01-26T22:09:48.736Z,12.38
2024-01-26T22:12:18.666Z,52.53
2024-01-26T22:14:45.806Z,31.85
2024-01-26T22:17:15.131Z,24.40
2024-01-26T22:19:42.325Z,16.20
2024-01-26T22:22:09.438Z,17.42
2024-01-26T22:24:37.653Z,15.13
2024-01-26T22:27:04.859Z,9.98
2024-01-26T22:29:32.024Z,11.13
2024-01-26T22:31:59.464Z,11.00
2024-01-26T22:34:26.829Z,12.20
2024-01-26T22:36:53.917Z,11.00
2024-01-26T22:39:21.728Z,8.70
2024-01-26T22:41:49.239Z,7.45
2024-01-26T22:44:16.338Z,10.38
2024-01-26T22:46:43.432Z,9.80
2024-01-26T22:49:11.223Z,15.70
2024-01-26T22:51:38.678Z,11.73
2024-01-26T22:54:05.806Z,12.38
2024-01-26T22:56:32.826Z,15.52
2024-01-26T22:59:00.047Z,16.33
2024-01-26T23:01:27.204Z,16.95
2024-01-26T23:03:55.245Z,16.00
2024-01-26T23:06:23.038Z,13.65
2024-01-26T23:08:51.338Z,15.50
2024-01-26T23:11:20.972Z,13.13
2024-01-26T23:13:51.267Z,12.45
2024-01-26T23:16:18.576Z,7.18
2024-01-26T23:18:45.772Z,9.10
2024-01-26T23:21:13.773Z,9.23
2024-01-26T23:23:40.866Z,10.65
2024-01-26T23:26:08.742Z,20.85
2024-01-26T23:28:37.481Z,12.95
2024-01-26T23:31:05.170Z,10.90
2024-01-26T23:33:32.316Z,6.93
2024-01-26T23:35:59.508Z,8.60
2024-01-26T23:38:27.696Z,11.55
2024-01-26T23:40:58.019Z,9.10
2024-01-26T23:43:25.482Z,9.48
2024-01-26T23:45:52.790Z,13.05
2024-01-26T23:48:20.339Z,16.08
2024-01-26T23:50:47.818Z,9.43
2024-01-26T23:53:15.178Z,16.58
2024-01-26T23:55:42.307Z,13.15
2024-01-26T23:58:09.448Z,14.27
